createdAt,value
2023-03-29T00:00:12.989Z,96699.91
2023-03-29T00:02:41.590Z,96711.19
2023-03-29T00:05:12.419Z,96704.13
2023-03-29T00:07:41.286Z,96718.56
2023-03-29T00:10:11.482Z,96713.06
2023-03-29T00:12:42.041Z,96702.56
2023-03-29T00:15:10.655Z,96697.84
2023-03-29T00:17:38.745Z,96699.13
2023-03-29T00:20:10.351Z,96702.28
2023-03-29T00:22:39.863Z,96694.47
2023-03-29T00:25:08.442Z,96685.56
2023-03-29T00:27:36.669Z,96680.03
2023-03-29T00:30:07.886Z,96675.03
2023-03-29T00:32:36.268Z,96654.81
2023-03-29T00:35:05.300Z,96639.59
2023-03-29T00:37:33.434Z,96653.75
2023-03-29T00:40:01.871Z,96648.00
2023-03-29T00:42:29.937Z,96651.69
2023-03-29T00:45:01.619Z,96642.25
2023-03-29T00:47:36.052Z,96644.84
2023-03-29T00:50:09.826Z,96635.38
2023-03-29T00:52:40.190Z,96631.69
2023-03-29T00:55:13.316Z,96616.72
2023-03-29T00:57:46.838Z,96629.00
2023-03-29T01:00:20.984Z,96640.56
2023-03-29T01:02:55.268Z,96633.50
2023-03-29T01:05:29.405Z,96647.94
2023-03-29T01:08:01.365Z,96646.91
2023-03-29T01:10:36.261Z,96647.94
2023-03-29T01:13:07.865Z,96642.69
2023-03-29T01:15:36.268Z,96639.53
2023-03-29T01:18:06.559Z,96652.34
2023-03-29T01:20:49.093Z,96656.84
2023-03-29T01:23:32.680Z,96651.59
2023-03-29T01:26:12.690Z,96656.31
2023-03-29T01:28:46.944Z,96664.16
2023-03-29T01:31:19.810Z,96652.41
2023-03-29T01:33:53.308Z,96661.50
2023-03-29T01:36:28.286Z,96670.34
2023-03-29T01:38:59.833Z,96658.81
2023-03-29T01:41:37.730Z,96658.25
2023-03-29T01:44:10.293Z,96654.75
2023-03-29T01:46:46.776Z,96664.41
2023-03-29T01:49:23.632Z,96654.41
2023-03-29T01:51:56.742Z,96658.56
2023-03-29T01:54:29.608Z,96665.31
2023-03-29T01:56:59.648Z,96683.34
2023-03-29T01:59:32.489Z,96693.81
2023-03-29T02:02:03.492Z,96678.34
2023-03-29T02:04:35.425Z,96654.75
2023-03-29T02:07:06.029Z,96639.72
2023-03-29T02:09:36.235Z,96634.44
2023-03-29T02:12:05.854Z,96623.44
2023-03-29T02:14:35.753Z,96626.00
2023-03-29T02:17:17.079Z,96624.88
2023-03-29T02:19:51.130Z,96616.22
2023-03-29T02:22:25.561Z,96604.41
2023-03-29T02:24:59.264Z,96597.84
2023-03-29T02:27:29.179Z,96610.63
2023-03-29T02:29:59.463Z,96618.44
2023-03-29T02:32:31.494Z,96614.47
2023-03-29T02:35:03.347Z,96604.00
2023-03-29T02:37:34.569Z,96612.09
2023-03-29T02:40:12.632Z,96610.81
2023-03-29T02:42:41.650Z,96604.06
2023-03-29T02:45:14.149Z,96591.97
2023-03-29T02:47:46.523Z,96597.19
2023-03-29T02:50:14.676Z,96620.75
2023-03-29T02:52:47.315Z,96625.47
2023-03-29T02:55:18.873Z,96616.06
2023-03-29T02:57:46.876Z,96621.44
2023-03-29T03:00:20.257Z,96633.97
2023-03-29T03:02:50.963Z,96628.44
2023-03-29T03:05:19.522Z,96621.28
2023-03-29T03:07:47.728Z,96608.38
2023-03-29T03:10:16.086Z,96621.69
2023-03-29T03:12:44.097Z,96631.50
2023-03-29T03:15:13.515Z,96631.00
2023-03-29T03:17:43.058Z,96629.91
2023-03-29T03:20:13.929Z,96626.75
2023-03-29T03:22:43.273Z,96620.47
2023-03-29T03:25:12.004Z,96625.72
2023-03-29T03:27:40.257Z,96639.09
2023-03-29T03:30:09.966Z,96644.38
2023-03-29T03:32:38.617Z,96653.81
2023-03-29T03:35:09.755Z,96650.41
2023-03-29T03:37:38.392Z,96638.34
2023-03-29T03:40:12.081Z,96635.75
2023-03-29T03:42:40.266Z,96653.50
2023-03-29T03:45:10.709Z,96656.19
2023-03-29T03:47:39.218Z,96642.84
2023-03-29T03:50:10.235Z,96635.75
2023-03-29T03:52:38.396Z,96647.25
2023-03-29T03:55:06.962Z,96657.69
2023-03-29T03:57:37.485Z,96658.72
2023-03-29T04:00:19.346Z,96659.22
2023-03-29T04:02:49.037Z,96670.16
2023-03-29T04:05:20.030Z,96673.31
2023-03-29T04:07:48.173Z,96671.31
2023-03-29T04:10:16.598Z,96647.59
2023-03-29T04:12:44.674Z,96657.34
2023-03-29T04:15:12.755Z,96660.03
2023-03-29T04:17:40.888Z,96673.09
2023-03-29T04:20:12.661Z,96681.19
2023-03-29T04:22:42.359Z,96672.00
2023-03-29T04:25:11.759Z,96656.47
2023-03-29T04:27:40.040Z,96653.50
2023-03-29T04:30:09.579Z,96661.78
2023-03-29T04:32:37.893Z,96664.81
2023-03-29T04:35:06.683Z,96649.84
2023-03-29T04:37:35.162Z,96656.59
2023-03-29T04:40:09.086Z,96649.47
2023-03-29T04:42:37.589Z,96650.56
2023-03-29T04:45:07.270Z,96635.69
2023-03-29T04:47:36.692Z,96644.56
2023-03-29T04:50:05.122Z,96644.31
2023-03-29T04:52:33.491Z,96649.31
2023-03-29T04:55:02.198Z,96642.78
2023-03-29T04:57:31.627Z,96633.31
2023-03-29T04:59:59.777Z,96639.56
2023-03-29T05:02:27.855Z,96644.19
2023-03-29T05:04:56.890Z,96638.41
2023-03-29T05:07:24.923Z,96641.44
2023-03-29T05:09:53.455Z,96644.22
2023-03-29T05:12:21.551Z,96639.25
2023-03-29T05:14:50.903Z,96641.59
2023-03-29T05:17:18.876Z,96638.81
2023-03-29T05:19:46.913Z,96626.63
2023-03-29T05:22:15.326Z,96631.59
2023-03-29T05:24:43.338Z,96636.81
2023-03-29T05:27:11.909Z,96643.63
2023-03-29T05:29:40.128Z,96646.78
2023-03-29T05:32:09.966Z,96645.69
2023-03-29T05:34:38.022Z,96647.69
2023-03-29T05:37:06.466Z,96643.50
2023-03-29T05:39:37.546Z,96658.22
2023-03-29T05:42:06.052Z,96638.88
2023-03-29T05:44:34.411Z,96635.25
2023-03-29T05:47:02.462Z,96636.69
2023-03-29T05:49:31.945Z,96628.19
2023-03-29T05:52:00.063Z,96630.19
2023-03-29T05:54:28.343Z,96639.53
2023-03-29T05:56:56.372Z,96646.34
2023-03-29T05:59:24.557Z,96643.72
2023-03-29T06:01:53.043Z,96639.53
2023-03-29T06:04:21.419Z,96636.19
2023-03-29T06:06:50.843Z,96627.88
2023-03-29T06:09:19.208Z,96637.69
2023-03-29T06:11:47.796Z,96654.75
2023-03-29T06:14:16.395Z,96658.53
2023-03-29T06:16:45.152Z,96662.00
2023-03-29T06:19:13.232Z,96665.03
2023-03-29T06:21:41.321Z,96663.13
2023-03-29T06:24:10.869Z,96667.88
2023-03-29T06:26:38.879Z,96656.63
2023-03-29T06:29:06.857Z,96674.38
2023-03-29T06:31:36.259Z,96673.91
2023-03-29T06:34:04.876Z,96662.47
2023-03-29T06:36:34.451Z,96670.38
2023-03-29T06:39:03.974Z,96665.47
2023-03-29T06:41:33.373Z,96657.63
2023-03-29T06:44:01.295Z,96662.00
2023-03-29T06:46:29.363Z,96655.66
2023-03-29T06:49:01.194Z,96663.59
2023-03-29T06:51:29.428Z,96673.22
2023-03-29T06:53:57.413Z,96675.84
2023-03-29T06:56:25.366Z,96680.63
2023-03-29T06:58:54.708Z,96684.81
2023-03-29T07:01:22.996Z,96677.53
2023-03-29T07:03:51.176Z,96667.09
2023-03-29T07:06:20.635Z,96680.22
2023-03-29T07:08:52.400Z,96687.88
2023-03-29T07:11:20.757Z,96698.97
2023-03-29T07:13:49.189Z,96703.78
2023-03-29T07:16:19.474Z,96716.13
2023-03-29T07:18:47.634Z,96727.19
2023-03-29T07:21:15.752Z,96723.13
2023-03-29T07:23:44.082Z,96718.59
2023-03-29T07:26:12.154Z,96713.38
2023-03-29T07:28:40.489Z,96687.22
2023-03-29T07:31:11.218Z,96694.09
2023-03-29T07:33:40.912Z,96680.59
2023-03-29T07:36:09.971Z,96681.94
2023-03-29T07:38:38.676Z,96681.63
2023-03-29T07:41:08.266Z,96691.00
2023-03-29T07:43:36.564Z,96692.03
2023-03-29T07:46:06.415Z,96697.19
2023-03-29T07:48:36.460Z,96701.25
2023-03-29T07:51:06.428Z,96705.31
2023-03-29T07:53:34.474Z,96717.03
2023-03-29T07:56:02.444Z,96710.00
2023-03-29T07:58:30.776Z,96691.75
2023-03-29T08:01:00.817Z,96703.31
2023-03-29T08:03:29.433Z,96702.38
2023-03-29T08:05:57.574Z,96702.47
2023-03-29T08:08:26.953Z,96710.66
2023-03-29T08:10:55.165Z,96694.84
2023-03-29T08:13:23.446Z,96706.38
2023-03-29T08:15:51.631Z,96699.13
2023-03-29T08:18:19.633Z,96703.38
2023-03-29T08:20:47.694Z,96693.66
2023-03-29T08:23:15.857Z,96690.78
2023-03-29T08:25:47.246Z,96715.19
2023-03-29T08:28:15.267Z,96724.97
2023-03-29T08:30:43.287Z,96710.78
2023-03-29T08:33:11.448Z,96713.31
2023-03-29T08:35:39.640Z,96716.91
2023-03-29T08:38:08.366Z,96709.66
2023-03-29T08:40:36.837Z,96705.50
2023-03-29T08:43:26.009Z,96697.13
2023-03-29T08:46:08.633Z,96694.84
2023-03-29T08:48:42.374Z,96690.53
2023-03-29T08:51:22.970Z,96693.25
2023-03-29T08:53:54.553Z,96684.09
2023-03-29T08:56:26.302Z,96678.66
2023-03-29T08:58:57.862Z,96697.06
2023-03-29T09:01:29.863Z,96709.13
2023-03-29T09:04:07.714Z,96711.75
2023-03-29T09:06:36.082Z,96713.34
2023-03-29T09:09:04.186Z,96727.47
2023-03-29T09:12:01.923Z,96726.41
2023-03-29T09:14:47.438Z,96727.47
2023-03-29T09:17:30.445Z,96758.63
2023-03-29T09:20:06.522Z,96769.91
2023-03-29T09:22:43.530Z,96765.75
2023-03-29T09:25:21.615Z,96774.19
2023-03-29T09:27:52.683Z,96752.78
2023-03-29T09:30:27.644Z,96719.81
2023-03-29T09:32:58.631Z,96704.91
2023-03-29T09:35:32.483Z,96686.34
2023-03-29T09:38:00.782Z,96687.28
2023-03-29T09:40:35.330Z,96681.84
2023-03-29T09:43:05.700Z,96682.41
2023-03-29T09:45:38.557Z,96680.34
2023-03-29T09:48:12.644Z,96668.31
2023-03-29T09:50:43.350Z,96676.22
2023-03-29T09:53:11.533Z,96674.16
2023-03-29T09:55:40.942Z,96673.13
2023-03-29T09:58:15.671Z,96672.88
2023-03-29T10:00:46.057Z,96666.28
2023-03-29T10:03:19.809Z,96672.06
2023-03-29T10:05:51.745Z,96666.25
2023-03-29T10:08:23.797Z,96662.00
2023-03-29T10:10:52.315Z,96664.41
2023-03-29T10:13:24.507Z,96666.78
2023-03-29T10:16:03.760Z,96667.28
2023-03-29T10:18:32.955Z,96662.56
2023-03-29T10:21:02.902Z,96660.72
2023-03-29T10:23:33.166Z,96661.81
2023-03-29T10:26:04.243Z,96652.59
2023-03-29T10:28:34.066Z,96643.41
2023-03-29T10:31:06.283Z,96650.00
2023-03-29T10:33:36.238Z,96652.59
2023-03-29T10:36:08.088Z,96668.63
2023-03-29T10:38:37.655Z,96669.94
2023-03-29T10:41:10.182Z,96678.88
2023-03-29T10:43:40.692Z,96685.75
2023-03-29T10:46:13.334Z,96685.75
2023-03-29T10:48:47.271Z,96698.38
2023-03-29T10:51:15.680Z,96684.97
2023-03-29T10:53:44.212Z,96674.72
2023-03-29T10:56:30.779Z,96699.41
2023-03-29T10:59:16.450Z,96708.88
2023-03-29T11:01:59.121Z,96689.97
2023-03-29T11:04:38.578Z,96685.75
2023-03-29T11:07:24.011Z,96690.22
2023-03-29T11:09:58.870Z,96659.19
2023-03-29T11:12:35.453Z,96653.66
2023-03-29T11:15:19.046Z,96648.88
2023-03-29T11:18:01.938Z,96644.06
2023-03-29T11:20:39.980Z,96637.81
2023-03-29T11:23:28.378Z,96642.56
2023-03-29T11:26:09.773Z,96647.28
2023-03-29T11:28:45.317Z,96658.31
2023-03-29T11:31:25.177Z,96659.13
2023-03-29T11:34:06.829Z,96653.59
2023-03-29T11:36:44.617Z,96659.66
2023-03-29T11:39:24.810Z,96657.75
2023-03-29T11:41:58.313Z,96668.78
2023-03-29T11:44:31.037Z,96675.09
2023-03-29T11:47:02.653Z,96681.94
2023-03-29T11:49:37.477Z,96675.63
2023-03-29T11:52:10.862Z,96670.41
2023-03-29T11:54:44.896Z,96675.44
2023-03-29T11:57:20.130Z,96697.53
2023-03-29T11:59:54.269Z,96706.69
2023-03-29T12:02:30.094Z,96704.56
2023-03-29T12:05:02.497Z,96690.88
2023-03-29T12:07:36.870Z,96699.84
2023-03-29T12:10:09.882Z,96685.63
2023-03-29T12:12:44.515Z,96684.06
2023-03-29T12:15:20.244Z,96681.91
2023-03-29T12:17:52.792Z,96668.22
2023-03-29T12:20:27.154Z,96667.44
2023-03-29T12:22:55.861Z,96670.56
2023-03-29T12:25:29.486Z,96659.22
2023-03-29T12:28:19.505Z,96655.28
2023-03-29T12:31:07.472Z,96648.19
2023-03-29T12:33:47.112Z,96641.84
2023-03-29T12:36:31.907Z,96648.69
2023-03-29T12:39:00.493Z,96657.09
2023-03-29T12:41:29.553Z,96655.03
2023-03-29T12:44:03.599Z,96644.84
2023-03-29T12:46:35.482Z,96635.72
2023-03-29T12:49:11.473Z,96631.53
2023-03-29T12:51:44.830Z,96635.22
2023-03-29T12:54:16.690Z,96641.03
2023-03-29T12:56:58.405Z,96644.19
2023-03-29T12:59:35.049Z,96646.84
2023-03-29T13:02:08.715Z,96658.41
2023-03-29T13:04:52.323Z,96656.28
2023-03-29T13:07:33.313Z,96668.38
2023-03-29T13:10:03.723Z,96666.31
2023-03-29T13:12:40.040Z,96655.25
2023-03-29T13:15:23.727Z,96650.53
2023-03-29T13:18:02.010Z,96646.84
2023-03-29T13:20:46.540Z,96650.81
2023-03-29T13:23:31.850Z,96643.19
2023-03-29T13:26:19.820Z,96640.00
2023-03-29T13:29:03.636Z,96641.59
2023-03-29T13:31:39.389Z,96643.44
2023-03-29T13:34:21.206Z,96646.31
2023-03-29T13:36:59.825Z,96640.53
2023-03-29T13:39:33.134Z,96638.69
2023-03-29T13:42:19.953Z,96638.69
2023-03-29T13:44:49.247Z,96632.13
2023-03-29T13:47:38.243Z,96627.13
2023-03-29T13:50:13.513Z,96623.97
2023-03-29T13:52:44.593Z,96637.34
2023-03-29T13:55:21.112Z,96637.81
2023-03-29T13:57:55.644Z,96641.69
2023-03-29T14:00:29.014Z,96656.66
2023-03-29T14:03:01.519Z,96668.75
2023-03-29T14:05:33.002Z,96677.69
2023-03-29T14:08:09.060Z,96674.00
2023-03-29T14:10:42.000Z,96676.66
2023-03-29T14:13:13.858Z,96674.53
2023-03-29T14:15:48.092Z,96678.22
2023-03-29T14:18:19.798Z,96669.25
2023-03-29T14:20:50.362Z,96667.13
2023-03-29T14:23:22.445Z,96660.25
2023-03-29T14:25:52.147Z,96647.59
2023-03-29T14:28:21.914Z,96642.59
2023-03-29T14:30:52.598Z,96641.03
2023-03-29T14:33:32.521Z,96629.94
2023-03-29T14:36:04.472Z,96620.44
2023-03-29T14:38:33.388Z,96617.06
2023-03-29T14:41:03.756Z,96608.66
2023-03-29T14:43:32.723Z,96611.25
2023-03-29T14:46:08.802Z,96606.75
2023-03-29T14:48:37.862Z,96598.59
2023-03-29T14:51:06.991Z,96599.38
2023-03-29T14:53:38.180Z,96593.34
2023-03-29T14:56:11.290Z,96583.88
2023-03-29T14:58:40.033Z,96591.22
2023-03-29T15:01:15.816Z,96592.53
2023-03-29T15:03:45.006Z,96597.75
2023-03-29T15:06:14.159Z,96584.31
2023-03-29T15:08:54.108Z,96578.53
2023-03-29T15:11:32.115Z,96574.31
2023-03-29T15:14:03.735Z,96564.03
2023-03-29T15:16:32.980Z,96571.13
2023-03-29T15:19:03.120Z,96566.88
2023-03-29T15:21:34.386Z,96562.13
2023-03-29T15:24:04.757Z,96559.25
2023-03-29T15:26:36.144Z,96554.56
2023-03-29T15:29:09.124Z,96547.75
2023-03-29T15:31:38.802Z,96556.28
2023-03-29T15:34:09.584Z,96538.44
2023-03-29T15:36:42.573Z,96533.50
2023-03-29T15:39:13.533Z,96525.63
2023-03-29T15:41:43.623Z,96517.69
2023-03-29T15:44:12.178Z,96506.09
2023-03-29T15:46:40.232Z,96508.69
2023-03-29T15:49:12.003Z,96502.31
2023-03-29T15:51:40.674Z,96502.00
2023-03-29T15:54:09.324Z,96485.94
2023-03-29T15:56:43.825Z,96480.41
2023-03-29T15:59:13.828Z,96483.78
2023-03-29T16:01:42.028Z,96490.56
2023-03-29T16:04:14.143Z,96492.06
2023-03-29T16:06:42.416Z,96487.81
2023-03-29T16:09:12.057Z,96469.41
2023-03-29T16:11:41.294Z,96471.06
2023-03-29T16:14:20.136Z,96467.94
2023-03-29T16:16:48.523Z,96465.25
2023-03-29T16:19:16.752Z,96463.59
2023-03-29T16:21:45.033Z,96469.84
2023-03-29T16:24:15.531Z,96460.00
2023-03-29T16:26:44.110Z,96455.28
2023-03-29T16:29:12.200Z,96450.09
2023-03-29T16:31:41.714Z,96449.38
2023-03-29T16:34:11.232Z,96449.13
2023-03-29T16:36:39.366Z,96446.28
2023-03-29T16:39:08.175Z,96433.66
2023-03-29T16:41:36.986Z,96431.56
2023-03-29T16:44:05.783Z,96429.44
2023-03-29T16:46:33.856Z,96420.22
2023-03-29T16:49:03.399Z,96421.22
2023-03-29T16:51:31.459Z,96421.72
2023-03-29T16:54:00.783Z,96423.81
2023-03-29T16:56:29.039Z,96431.44
2023-03-29T16:58:57.123Z,96430.41
2023-03-29T17:01:25.486Z,96432.31
2023-03-29T17:03:53.704Z,96435.56
2023-03-29T17:06:23.123Z,96424.00
2023-03-29T17:08:51.743Z,96419.53
2023-03-29T17:11:23.198Z,96423.28
2023-03-29T17:13:51.416Z,96429.03
2023-03-29T17:16:19.499Z,96421.16
2023-03-29T17:18:47.742Z,96416.94
2023-03-29T17:21:15.904Z,96410.16
2023-03-29T17:23:45.411Z,96414.94
2023-03-29T17:26:13.508Z,96415.50
2023-03-29T17:28:41.701Z,96411.81
2023-03-29T17:31:09.871Z,96407.09
2023-03-29T17:33:38.478Z,96400.06
2023-03-29T17:36:08.067Z,96400.66
2023-03-29T17:38:38.144Z,96399.13
2023-03-29T17:41:08.345Z,96400.41
2023-03-29T17:43:36.487Z,96403.56
2023-03-29T17:46:04.718Z,96417.78
2023-03-29T17:48:33.934Z,96419.91
2023-03-29T17:51:02.004Z,96413.09
2023-03-29T17:53:30.119Z,96413.16
2023-03-29T17:55:58.167Z,96407.16
2023-03-29T17:58:27.614Z,96413.72
2023-03-29T18:00:55.766Z,96417.88
2023-03-29T18:03:23.903Z,96422.88
2023-03-29T18:05:52.011Z,96426.88
2023-03-29T18:08:20.015Z,96426.66
2023-03-29T18:10:48.081Z,96425.63
2023-03-29T18:13:16.151Z,96432.75
2023-03-29T18:15:47.576Z,96428.03
2023-03-29T18:18:15.976Z,96436.97
2023-03-29T18:20:46.097Z,96447.47
2023-03-29T18:23:14.317Z,96442.72
2023-03-29T18:25:42.369Z,96448.00
2023-03-29T18:28:10.799Z,96455.91
2023-03-29T18:30:38.832Z,96459.06
2023-03-29T18:33:08.607Z,96455.41
2023-03-29T18:35:36.911Z,96454.88
2023-03-29T18:38:05.156Z,96460.13
2023-03-29T18:40:34.783Z,96455.66
2023-03-29T18:43:03.255Z,96463.28
2023-03-29T18:45:31.658Z,96467.50
2023-03-29T18:47:59.747Z,96465.41
2023-03-29T18:50:29.505Z,96468.59
2023-03-29T18:52:57.610Z,96473.84
2023-03-29T18:55:25.676Z,96473.84
2023-03-29T18:57:53.814Z,96461.75
2023-03-29T19:00:21.827Z,96462.28
2023-03-29T19:02:50.505Z,96458.03
2023-03-29T19:05:19.389Z,96461.72
2023-03-29T19:07:48.874Z,96462.25
2023-03-29T19:10:16.987Z,96452.28
2023-03-29T19:12:45.155Z,96462.78
2023-03-29T19:15:13.822Z,96468.03
2023-03-29T19:17:42.014Z,96471.47
2023-03-29T19:20:11.344Z,96479.34
2023-03-29T19:22:40.260Z,96472.75
2023-03-29T19:25:10.643Z,96481.44
2023-03-29T19:27:39.059Z,96484.59
2023-03-29T19:30:09.205Z,96483.53
2023-03-29T19:32:37.351Z,96494.03
2023-03-29T19:35:06.020Z,96488.28
2023-03-29T19:37:34.118Z,96483.81
2023-03-29T19:40:02.187Z,96487.47
2023-03-29T19:42:31.686Z,96486.38
2023-03-29T19:44:59.658Z,96483.72
2023-03-29T19:47:28.206Z,96486.31
2023-03-29T19:49:57.962Z,96485.28
2023-03-29T19:52:27.830Z,96478.16
2023-03-29T19:54:55.989Z,96482.09
2023-03-29T19:57:24.990Z,96491.81
2023-03-29T19:59:54.562Z,96495.22
2023-03-29T20:02:22.630Z,96490.22
2023-03-29T20:04:50.824Z,96490.22
2023-03-29T20:07:18.836Z,96493.66
2023-03-29T20:09:47.471Z,96487.34
2023-03-29T20:12:15.508Z,96478.69
2023-03-29T20:14:43.651Z,96483.16
2023-03-29T20:17:13.132Z,96488.41
2023-03-29T20:19:44.167Z,96483.16
2023-03-29T20:22:12.782Z,96483.19
2023-03-29T20:24:41.002Z,96482.66
2023-03-29T20:27:09.055Z,96474.78
2023-03-29T20:29:37.399Z,96470.06
2023-03-29T20:32:05.696Z,96469.03
2023-03-29T20:34:35.349Z,96469.81
2023-03-29T20:37:03.503Z,96472.19
2023-03-29T20:39:31.856Z,96464.56
2023-03-29T20:42:00.708Z,96471.16
2023-03-29T20:44:28.839Z,96480.09
2023-03-29T20:47:03.980Z,96476.41
2023-03-29T20:49:37.617Z,96485.34
2023-03-29T20:52:10.791Z,96483.78
2023-03-29T20:54:39.441Z,96476.94
2023-03-29T20:57:08.077Z,96472.47
2023-03-29T20:59:36.309Z,96468.50
2023-03-29T21:02:04.387Z,96469.03
2023-03-29T21:04:33.826Z,96470.59
2023-03-29T21:07:03.286Z,96466.41
2023-03-29T21:09:34.337Z,96460.09
2023-03-29T21:12:02.422Z,96457.44
2023-03-29T21:14:33.182Z,96461.66
2023-03-29T21:17:01.534Z,96466.94
2023-03-29T21:19:29.808Z,96466.44
2023-03-29T21:21:58.135Z,96465.13
2023-03-29T21:24:26.275Z,96464.34
2023-03-29T21:26:55.855Z,96468.03
2023-03-29T21:29:24.279Z,96463.84
2023-03-29T21:31:52.335Z,96460.19
2023-03-29T21:34:20.400Z,96456.53
2023-03-29T21:36:48.466Z,96456.78
2023-03-29T21:39:16.523Z,96454.16
2023-03-29T21:41:44.579Z,96452.06
2023-03-29T21:44:14.003Z,96454.69
2023-03-29T21:46:42.112Z,96451.81
2023-03-29T21:49:10.636Z,96459.69
2023-03-29T21:51:38.691Z,96460.47
2023-03-29T21:54:06.909Z,96460.19
2023-03-29T21:56:34.902Z,96457.03
2023-03-29T21:59:03.023Z,96448.88
2023-03-29T22:01:32.583Z,96452.81
2023-03-29T22:04:00.618Z,96452.81
2023-03-29T22:06:28.642Z,96451.25
2023-03-29T22:08:56.696Z,96450.44
2023-03-29T22:11:25.718Z,96449.66
2023-03-29T22:13:53.779Z,96453.34
2023-03-29T22:16:21.942Z,96451.75
2023-03-29T22:18:52.619Z,96452.78
2023-03-29T22:21:23.618Z,96448.03
2023-03-29T22:23:53.227Z,96444.91
2023-03-29T22:26:23.420Z,96444.91
2023-03-29T22:28:51.986Z,96433.09
2023-03-29T22:31:22.871Z,96437.06
2023-03-29T22:33:52.633Z,96429.47
2023-03-29T22:36:22.518Z,96428.19
2023-03-29T22:38:52.057Z,96432.66
2023-03-29T22:41:22.710Z,96431.88
2023-03-29T22:43:52.248Z,96426.09
2023-03-29T22:46:21.117Z,96425.53
2023-03-29T22:48:49.497Z,96425.78
2023-03-29T22:51:18.933Z,96418.16
2023-03-29T22:53:47.830Z,96418.16
2023-03-29T22:56:16.320Z,96420.28
2023-03-29T22:58:45.124Z,96426.59
2023-03-29T23:01:13.659Z,96415.28
2023-03-29T23:03:41.775Z,96423.44
2023-03-29T23:06:10.128Z,96411.38
2023-03-29T23:08:39.557Z,96408.00
2023-03-29T23:11:07.756Z,96409.03
2023-03-29T23:13:35.933Z,96412.72
2023-03-29T23:16:04.982Z,96407.22
2023-03-29T23:18:35.022Z,96398.81
2023-03-29T23:21:06.160Z,96403.81
2023-03-29T23:23:34.732Z,96410.44
2023-03-29T23:26:04.296Z,96405.72
2023-03-29T23:28:34.805Z,96402.03
2023-03-29T23:31:05.468Z,96402.03
2023-03-29T23:33:35.883Z,96399.13
2023-03-29T23:36:05.946Z,96392.31
2023-03-29T23:38:35.496Z,96386.28
2023-03-29T23:41:08.485Z,96393.09
2023-03-29T23:43:40.607Z,96393.09
2023-03-29T23:46:10.634Z,96402.03
2023-03-29T23:48:39.408Z,96395.22
2023-03-29T23:51:09.966Z,96388.38
2023-03-29T23:53:38.329Z,96386.81
2023-03-29T23:56:09.239Z,96391.53
2023-03-29T23:58:38.973Z,96388.91
